Terminal Aerodrome Forecast
Issued by NWS Cleveland, OH

Home | Current Version | Previous Version | Graphics & Text | Print | Product List | Glossary On
Versions: 1 2 3 4 5 6 7 8 9 10 11 12 13 14 15 16 17 18 19 20 21 22 23 24 25 26 27 28 29 30 31 32
811
FTUS41 KCLE 191140
TAFCLE
TAF
KCLE 191140Z 1912/2018 22007KT P6SM OVC010
      TEMPO 1912/1916 OVC008
     FM191900 18005KT P6SM BKN100 OVC250
     FM192300 10005KT P6SM OVC100
     FM200900 10005KT 6SM -RA OVC040
     FM201100 10007KT 4SM -RA BR OVC007
     FM201600 18007KT 5SM BR OVC007=

USA.gov is the U.S. government's official web portal to all federal, state and local government web resources and services.